createdAt,value
2023-05-09T00:01:22.931Z,15.57
2023-05-09T00:03:52.194Z,11.35
2023-05-09T00:06:19.943Z,13.90
2023-05-09T00:08:47.055Z,15.57
2023-05-09T00:11:13.861Z,15.27
2023-05-09T00:13:41.957Z,12.88
2023-05-09T00:16:09.318Z,15.00
2023-05-09T00:18:37.589Z,13.73
2023-05-09T00:21:05.241Z,15.25
2023-05-09T00:23:32.039Z,13.88
2023-05-09T00:25:59.532Z,12.20
2023-05-09T00:28:26.782Z,13.65
2023-05-09T00:30:53.843Z,12.25
2023-05-09T00:33:20.833Z,15.35
2023-05-09T00:35:47.831Z,14.57
2023-05-09T00:38:15.178Z,14.27
2023-05-09T00:40:42.004Z,12.20
2023-05-09T00:43:08.871Z,11.77
2023-05-09T00:45:35.784Z,20.33
2023-05-09T00:48:03.316Z,12.88
2023-05-09T00:50:31.141Z,17.90
2023-05-09T00:52:58.744Z,11.82
2023-05-09T00:55:27.331Z,14.85
2023-05-09T00:57:54.074Z,12.00
2023-05-09T01:00:21.550Z,14.02
2023-05-09T01:02:53.469Z,13.70
2023-05-09T01:05:21.617Z,15.30
2023-05-09T01:08:00.627Z,14.60
2023-05-09T01:10:42.429Z,13.50
2023-05-09T01:13:15.081Z,16.92
2023-05-09T01:16:06.248Z,22.40
2023-05-09T01:18:57.008Z,14.13
2023-05-09T01:21:30.553Z,12.48
2023-05-09T01:24:00.815Z,12.23
2023-05-09T01:26:52.341Z,15.63
2023-05-09T01:29:36.640Z,11.93
2023-05-09T01:32:10.010Z,15.07
2023-05-09T01:34:38.878Z,11.30
2023-05-09T01:37:07.474Z,11.82
2023-05-09T01:39:38.586Z,14.00
2023-05-09T01:42:08.830Z,10.93
2023-05-09T01:44:42.589Z,14.63
2023-05-09T01:47:10.916Z,11.38
2023-05-09T01:49:40.215Z,14.27
2023-05-09T01:52:16.918Z,13.98
2023-05-09T01:54:45.951Z,13.18
2023-05-09T01:57:13.699Z,16.23
2023-05-09T01:59:43.137Z,12.35
2023-05-09T02:02:10.462Z,12.25
2023-05-09T02:04:39.383Z,13.73
2023-05-09T02:07:07.595Z,12.35
2023-05-09T02:09:34.853Z,13.70
2023-05-09T02:12:02.218Z,16.02
2023-05-09T02:14:29.887Z,13.95
2023-05-09T02:16:56.867Z,13.07
2023-05-09T02:19:24.310Z,13.90
2023-05-09T02:21:51.212Z,13.82
2023-05-09T02:24:18.135Z,12.82
2023-05-09T02:26:45.573Z,13.30
2023-05-09T02:29:12.921Z,13.35
2023-05-09T02:31:41.546Z,13.77
2023-05-09T02:34:09.800Z,16.27
2023-05-09T02:36:37.946Z,14.98
2023-05-09T02:39:05.030Z,17.10
2023-05-09T02:41:31.985Z,14.52
2023-05-09T02:43:58.866Z,17.05
2023-05-09T02:46:26.187Z,18.40
2023-05-09T02:48:53.583Z,14.88
2023-05-09T02:51:20.444Z,18.15
2023-05-09T02:53:47.267Z,16.40
2023-05-09T02:56:14.315Z,15.18
2023-05-09T02:58:41.256Z,15.63
2023-05-09T03:01:09.860Z,17.33
2023-05-09T03:03:38.345Z,17.75
2023-05-09T03:06:06.481Z,14.40
2023-05-09T03:08:33.454Z,20.75
2023-05-09T03:11:00.856Z,14.48
2023-05-09T03:13:28.289Z,15.77
2023-05-09T03:15:57.122Z,14.35
2023-05-09T03:18:24.229Z,15.68
2023-05-09T03:20:51.562Z,16.73
2023-05-09T03:23:19.229Z,14.75
2023-05-09T03:25:46.041Z,14.27
2023-05-09T03:28:12.804Z,16.77
2023-05-09T03:30:39.986Z,20.60
2023-05-09T03:33:10.633Z,16.45
2023-05-09T03:35:37.400Z,16.20
2023-05-09T03:38:05.794Z,14.80
2023-05-09T03:40:32.804Z,19.90
2023-05-09T03:43:06.572Z,19.23
2023-05-09T03:45:33.604Z,20.67
2023-05-09T03:48:01.181Z,19.10
2023-05-09T03:50:29.395Z,18.67
2023-05-09T03:52:58.101Z,15.70
2023-05-09T03:55:26.304Z,19.08
2023-05-09T03:57:54.044Z,15.70
2023-05-09T04:00:22.757Z,16.38
2023-05-09T04:03:00.629Z,17.38
2023-05-09T04:05:36.299Z,18.05
2023-05-09T04:08:05.264Z,19.73
2023-05-09T04:10:32.850Z,17.25
2023-05-09T04:12:59.896Z,15.20
2023-05-09T04:15:26.785Z,14.35
2023-05-09T04:17:54.302Z,15.48
2023-05-09T04:20:21.183Z,16.17
2023-05-09T04:22:48.127Z,15.48
2023-05-09T04:25:17.120Z,21.00
2023-05-09T04:27:45.581Z,19.70
2023-05-09T04:30:12.947Z,17.70
2023-05-09T04:32:40.636Z,25.13
2023-05-09T04:35:09.130Z,17.92
2023-05-09T04:37:40.282Z,28.40
2023-05-09T04:40:09.411Z,21.13
2023-05-09T04:42:46.886Z,24.17
2023-05-09T04:45:16.493Z,33.83
2023-05-09T04:47:44.343Z,35.90
2023-05-09T04:50:11.765Z,27.42
2023-05-09T04:52:38.736Z,29.15
2023-05-09T04:55:06.528Z,28.38
2023-05-09T04:57:41.812Z,27.50
2023-05-09T05:00:11.731Z,30.40
2023-05-09T05:02:39.572Z,31.23
2023-05-09T05:05:12.215Z,37.13
2023-05-09T05:07:42.537Z,27.42
2023-05-09T05:10:11.575Z,28.73
2023-05-09T05:12:41.126Z,25.55
2023-05-09T05:15:11.574Z,26.63
2023-05-09T05:17:39.629Z,21.83
2023-05-09T05:20:10.560Z,21.08
2023-05-09T05:22:41.672Z,29.00
2023-05-09T05:25:08.851Z,20.45
2023-05-09T05:27:36.960Z,26.13
2023-05-09T05:30:04.749Z,26.42
2023-05-09T05:32:31.879Z,31.05
2023-05-09T05:35:02.617Z,21.52
2023-05-09T05:37:29.801Z,23.08
2023-05-09T05:39:56.893Z,20.85
2023-05-09T05:42:25.191Z,26.05
2023-05-09T05:44:51.996Z,28.13
2023-05-09T05:47:18.856Z,25.92
2023-05-09T05:49:46.293Z,26.05
2023-05-09T05:52:13.261Z,21.27
2023-05-09T05:54:40.702Z,27.65
2023-05-09T05:57:08.351Z,22.35
2023-05-09T05:59:36.538Z,28.23
2023-05-09T06:02:03.512Z,28.27
2023-05-09T06:04:31.126Z,26.92
2023-05-09T06:06:59.211Z,19.67
2023-05-09T06:09:27.347Z,25.95
2023-05-09T06:11:54.427Z,29.65
2023-05-09T06:14:21.328Z,25.55
2023-05-09T06:16:48.690Z,30.35
2023-05-09T06:19:15.761Z,30.77
2023-05-09T06:21:42.987Z,28.67
2023-05-09T06:24:14.420Z,24.42
2023-05-09T06:26:51.250Z,28.50
2023-05-09T06:29:18.095Z,27.08
2023-05-09T06:31:45.575Z,31.40
2023-05-09T06:34:12.555Z,28.73
2023-05-09T06:36:39.469Z,31.10
2023-05-09T06:39:06.387Z,31.15
2023-05-09T06:41:33.257Z,27.05
2023-05-09T06:44:02.708Z,29.35
2023-05-09T06:46:29.803Z,28.98
2023-05-09T06:48:56.937Z,30.08
2023-05-09T06:51:25.060Z,25.05
2023-05-09T06:53:55.648Z,25.15
2023-05-09T06:56:23.303Z,28.75
2023-05-09T06:58:50.522Z,30.33
2023-05-09T07:01:17.886Z,26.17
2023-05-09T07:03:47.918Z,24.15
2023-05-09T07:06:14.836Z,24.65
2023-05-09T07:08:41.763Z,29.50
2023-05-09T07:11:08.951Z,29.77
2023-05-09T07:13:36.707Z,24.85
2023-05-09T07:16:04.794Z,36.20
2023-05-09T07:18:31.848Z,25.33
2023-05-09T07:21:00.414Z,23.33
2023-05-09T07:23:27.453Z,32.35
2023-05-09T07:25:58.891Z,23.00
2023-05-09T07:28:26.134Z,21.25
2023-05-09T07:30:55.888Z,25.17
2023-05-09T07:33:23.993Z,24.90
2023-05-09T07:38:20.356Z,23.77
2023-05-09T07:40:47.527Z,23.30
2023-05-09T07:43:18.170Z,27.75
2023-05-09T07:45:47.438Z,23.85
2023-05-09T07:48:18.401Z,23.98
2023-05-09T07:50:45.456Z,22.33
2023-05-09T07:53:12.261Z,25.15
2023-05-09T07:55:39.026Z,24.58
2023-05-09T07:58:06.080Z,24.45
2023-05-09T08:00:36.188Z,24.48
2023-05-09T08:03:03.510Z,26.38
2023-05-09T08:05:30.903Z,23.45
2023-05-09T08:07:57.834Z,22.67
2023-05-09T08:10:25.052Z,25.80
2023-05-09T08:12:52.464Z,24.35
2023-05-09T08:15:19.315Z,24.70
2023-05-09T08:17:46.617Z,21.80
2023-05-09T08:20:13.916Z,24.38
2023-05-09T08:22:44.782Z,27.00
2023-05-09T08:25:25.261Z,24.30
2023-05-09T08:27:53.200Z,21.77
2023-05-09T08:30:20.934Z,23.00
2023-05-09T08:32:47.796Z,23.35
2023-05-09T08:35:14.913Z,26.23
2023-05-09T08:37:42.238Z,25.98
2023-05-09T08:40:10.224Z,28.63
2023-05-09T08:42:40.779Z,27.08
2023-05-09T08:45:10.855Z,23.73
2023-05-09T08:47:39.312Z,24.27
2023-05-09T08:50:08.093Z,25.50
2023-05-09T08:52:38.685Z,23.00
2023-05-09T08:55:09.701Z,25.70
2023-05-09T08:57:37.256Z,41.03
2023-05-09T09:00:06.576Z,25.58
2023-05-09T09:02:34.243Z,23.92
2023-05-09T09:05:02.972Z,26.02
2023-05-09T09:07:31.334Z,23.23
2023-05-09T09:09:59.652Z,25.63
2023-05-09T09:12:26.773Z,24.75
2023-05-09T09:14:56.181Z,20.80
2023-05-09T09:17:28.142Z,23.80
2023-05-09T09:19:59.856Z,21.85
2023-05-09T09:22:33.835Z,21.92
2023-05-09T09:25:02.049Z,22.48
2023-05-09T09:27:28.975Z,22.80
2023-05-09T09:29:56.092Z,22.10
2023-05-09T09:32:34.188Z,27.50
2023-05-09T09:35:07.195Z,23.38
2023-05-09T09:37:35.785Z,23.25
2023-05-09T09:40:03.804Z,21.70
2023-05-09T09:42:44.919Z,21.75
2023-05-09T09:45:13.842Z,23.63
2023-05-09T09:47:43.074Z,20.88
2023-05-09T09:50:15.535Z,23.88
2023-05-09T09:52:54.140Z,22.98
2023-05-09T09:55:22.475Z,20.17
2023-05-09T09:57:49.383Z,23.23
2023-05-09T10:00:18.364Z,24.40
2023-05-09T10:02:56.130Z,26.15
2023-05-09T10:05:28.517Z,23.20
2023-05-09T10:08:00.086Z,20.67
2023-05-09T10:10:31.509Z,19.65
2023-05-09T10:13:09.572Z,20.65
2023-05-09T10:15:49.039Z,15.38
2023-05-09T10:18:19.990Z,18.20
2023-05-09T10:20:47.286Z,17.83
2023-05-09T10:23:16.670Z,30.13
2023-05-09T10:26:03.209Z,14.00
2023-05-09T10:28:34.332Z,13.32
2023-05-09T10:31:13.275Z,12.40
2023-05-09T10:33:51.063Z,12.45
2023-05-09T10:36:23.900Z,10.82
2023-05-09T10:38:54.196Z,12.20
2023-05-09T10:41:25.644Z,10.68
2023-05-09T10:43:53.092Z,12.23
2023-05-09T10:46:24.048Z,13.43
2023-05-09T10:48:51.290Z,14.07
2023-05-09T10:51:18.602Z,11.82
2023-05-09T10:53:48.053Z,11.75
2023-05-09T10:56:35.776Z,13.65
2023-05-09T10:59:02.979Z,11.45
2023-05-09T11:01:39.026Z,10.10
2023-05-09T11:04:14.605Z,11.45
2023-05-09T11:06:45.345Z,8.52
2023-05-09T11:09:34.726Z,8.63
2023-05-09T11:12:10.135Z,7.68
2023-05-09T11:14:45.578Z,7.90
2023-05-09T11:17:36.337Z,7.07
2023-05-09T11:20:05.896Z,7.30
2023-05-09T11:22:41.407Z,7.53
2023-05-09T11:25:09.312Z,7.70
2023-05-09T11:27:41.118Z,8.98
2023-05-09T11:30:09.018Z,7.03
2023-05-09T11:32:58.913Z,7.10
2023-05-09T11:35:28.942Z,7.65
2023-05-09T11:38:05.671Z,8.23
2023-05-09T11:40:34.019Z,8.73
2023-05-09T11:43:01.765Z,6.20
2023-05-09T11:45:31.272Z,7.35
2023-05-09T11:50:25.821Z,9.48
2023-05-09T11:52:53.574Z,6.57
2023-05-09T11:55:30.242Z,8.40
2023-05-09T11:57:57.418Z,8.63
2023-05-09T12:00:26.271Z,20.40
2023-05-09T12:02:53.722Z,13.52
2023-05-09T12:05:22.855Z,10.20
2023-05-09T12:07:50.332Z,12.70
2023-05-09T12:10:20.457Z,8.73
2023-05-09T12:12:49.839Z,11.13
2023-05-09T12:15:17.665Z,12.73
2023-05-09T12:17:47.122Z,11.60
2023-05-09T12:20:15.144Z,12.38
2023-05-09T12:22:53.488Z,11.23
2023-05-09T12:25:20.256Z,8.77
2023-05-09T12:27:47.047Z,9.43
2023-05-09T12:30:16.154Z,13.80
2023-05-09T12:32:43.875Z,7.78
2023-05-09T12:35:11.310Z,9.23
2023-05-09T12:37:38.597Z,9.52
2023-05-09T12:40:13.071Z,6.63
2023-05-09T12:42:44.096Z,5.60
2023-05-09T12:45:11.581Z,6.53
2023-05-09T12:47:39.156Z,6.22
2023-05-09T12:50:07.171Z,5.28
2023-05-09T12:52:41.653Z,5.22
2023-05-09T12:55:15.306Z,4.22
2023-05-09T12:57:42.954Z,6.80
2023-05-09T13:00:12.106Z,7.32
2023-05-09T13:02:42.077Z,4.32
2023-05-09T13:05:10.822Z,7.88
2023-05-09T13:07:52.794Z,3.92
2023-05-09T13:10:24.253Z,5.00
2023-05-09T13:12:52.064Z,5.95
2023-05-09T13:15:21.054Z,5.97
2023-05-09T13:17:52.082Z,7.45
2023-05-09T13:20:19.878Z,8.35
2023-05-09T13:22:46.862Z,6.60
2023-05-09T13:25:13.853Z,16.70
2023-05-09T13:27:40.649Z,9.25
2023-05-09T13:30:08.493Z,9.77
2023-05-09T13:32:36.597Z,5.60
2023-05-09T13:35:06.759Z,6.53
2023-05-09T13:37:36.394Z,7.45
2023-05-09T13:40:04.376Z,7.72
2023-05-09T13:42:31.235Z,9.77
2023-05-09T13:44:58.021Z,10.38
2023-05-09T13:47:24.999Z,6.15
2023-05-09T13:49:52.286Z,5.45
2023-05-09T13:52:19.435Z,4.75
2023-05-09T13:54:46.533Z,11.07
2023-05-09T13:57:13.400Z,7.30
2023-05-09T13:59:43.506Z,8.93
2023-05-09T14:02:13.157Z,8.43
2023-05-09T14:04:39.994Z,10.43
2023-05-09T14:07:09.425Z,7.05
2023-05-09T14:12:07.053Z,9.68
2023-05-09T14:14:34.037Z,7.05
2023-05-09T14:17:01.410Z,8.05
2023-05-09T14:19:30.323Z,10.63
2023-05-09T14:21:59.598Z,10.48
2023-05-09T14:24:26.400Z,9.32
2023-05-09T14:26:53.156Z,8.63
2023-05-09T14:29:19.974Z,10.10
2023-05-09T14:31:46.643Z,11.68
2023-05-09T14:34:13.290Z,8.48
2023-05-09T14:36:40.181Z,9.63
2023-05-09T14:39:07.492Z,12.32
2023-05-09T14:41:34.196Z,8.82
2023-05-09T14:44:00.968Z,9.63
2023-05-09T14:46:27.955Z,11.40
2023-05-09T14:48:54.752Z,11.05
2023-05-09T14:51:21.834Z,10.30
2023-05-09T14:53:48.570Z,10.52
2023-05-09T14:56:15.513Z,5.82
2023-05-09T14:58:42.491Z,8.93
2023-05-09T15:01:09.258Z,5.70
2023-05-09T15:03:36.159Z,4.50
2023-05-09T15:06:04.312Z,6.78
2023-05-09T15:08:31.387Z,4.20
2023-05-09T15:10:58.106Z,5.63
2023-05-09T15:13:32.606Z,4.75
2023-05-09T15:16:02.690Z,4.25
2023-05-09T15:18:49.860Z,6.05
2023-05-09T15:21:23.770Z,3.30
2023-05-09T15:23:53.845Z,5.75
2023-05-09T15:26:21.383Z,5.10
2023-05-09T15:28:48.965Z,5.15
2023-05-09T15:31:17.616Z,3.00
2023-05-09T15:36:39.514Z,3.05
2023-05-09T15:39:12.263Z,2.42
2023-05-09T15:41:39.764Z,2.38
2023-05-09T15:44:10.111Z,2.53
2023-05-09T15:46:43.142Z,4.07
2023-05-09T15:49:11.592Z,4.20
2023-05-09T15:51:42.449Z,5.78
2023-05-09T15:54:09.805Z,3.10
2023-05-09T15:56:42.567Z,4.57
2023-05-09T15:59:17.381Z,3.97
2023-05-09T16:01:44.513Z,5.97
2023-05-09T16:04:33.301Z,4.35
2023-05-09T16:07:09.209Z,4.68
2023-05-09T16:09:39.837Z,5.03
2023-05-09T16:12:12.988Z,4.82
2023-05-09T16:14:47.654Z,3.42
2023-05-09T16:17:16.639Z,3.28
2023-05-09T16:19:53.569Z,7.18
2023-05-09T16:22:28.184Z,6.70
2023-05-09T16:24:58.336Z,4.95
2023-05-09T16:27:32.407Z,5.13
2023-05-09T16:30:02.232Z,8.85
2023-05-09T16:32:32.736Z,6.13
2023-05-09T16:35:18.449Z,7.13
2023-05-09T16:37:48.615Z,3.60
2023-05-09T16:40:17.960Z,5.15
2023-05-09T16:45:19.078Z,1.88
2023-05-09T16:47:49.323Z,3.33
2023-05-09T16:50:19.751Z,6.07
2023-05-09T16:53:02.141Z,3.58
2023-05-09T16:55:34.577Z,2.63
2023-05-09T16:58:09.756Z,4.85
2023-05-09T17:00:43.169Z,5.60
2023-05-09T17:03:19.315Z,4.32
2023-05-09T17:06:17.960Z,4.30
2023-05-09T17:08:56.149Z,3.83
2023-05-09T17:11:30.892Z,2.85
2023-05-09T17:14:20.052Z,4.40
2023-05-09T17:17:00.999Z,4.00
2023-05-09T17:19:31.980Z,2.63
2023-05-09T17:22:09.220Z,2.42
2023-05-09T17:24:47.095Z,4.65
2023-05-09T17:27:37.127Z,3.15
2023-05-09T17:30:16.107Z,2.08
2023-05-09T17:32:49.148Z,4.57
2023-05-09T17:38:11.002Z,2.50
2023-05-09T17:40:54.012Z,2.45
2023-05-09T17:43:25.051Z,2.53
2023-05-09T17:45:55.325Z,3.30
2023-05-09T17:48:23.486Z,3.03
2023-05-09T17:50:51.291Z,3.70
2023-05-09T17:53:18.898Z,5.10
2023-05-09T17:55:46.027Z,4.13
2023-05-09T17:58:15.061Z,8.20
2023-05-09T18:00:42.252Z,6.63
2023-05-09T18:03:09.346Z,5.63
2023-05-09T18:05:36.245Z,3.53
2023-05-09T18:08:06.623Z,2.80
2023-05-09T18:10:33.336Z,10.65
2023-05-09T18:13:12.420Z,5.70
2023-05-09T18:15:39.319Z,3.70
2023-05-09T18:18:09.868Z,4.43
2023-05-09T18:20:38.214Z,24.10
2023-05-09T18:23:10.819Z,3.47
2023-05-09T18:25:38.732Z,2.15
2023-05-09T18:28:05.571Z,3.42
2023-05-09T18:30:32.568Z,1.98
2023-05-09T18:33:01.554Z,3.65
2023-05-09T18:35:28.610Z,6.00
2023-05-09T18:37:58.459Z,1.77
2023-05-09T18:40:37.198Z,6.35
2023-05-09T18:45:57.204Z,2.70
2023-05-09T18:48:29.258Z,5.82
2023-05-09T18:50:56.462Z,3.35
2023-05-09T18:53:32.774Z,5.80
2023-05-09T18:56:26.602Z,3.78
2023-05-09T18:58:54.040Z,3.92
2023-05-09T19:01:24.556Z,3.90
2023-05-09T19:03:54.594Z,5.00
2023-05-09T19:06:22.265Z,8.18
2023-05-09T19:08:54.761Z,4.63
2023-05-09T19:11:22.401Z,2.15
2023-05-09T19:13:49.682Z,3.53
2023-05-09T19:16:36.514Z,2.15
2023-05-09T19:19:05.927Z,2.67
2023-05-09T19:21:34.304Z,2.10
2023-05-09T19:24:23.545Z,1.30
2023-05-09T19:26:59.839Z,1.95
2023-05-09T19:29:26.779Z,1.77
2023-05-09T19:32:04.338Z,1.38
2023-05-09T19:34:31.460Z,2.05
2023-05-09T19:36:58.242Z,5.95
2023-05-09T19:39:25.349Z,2.20
2023-05-09T19:41:52.391Z,7.32
2023-05-09T19:44:19.203Z,4.15
2023-05-09T19:46:46.533Z,2.80
2023-05-09T19:49:30.454Z,2.65
2023-05-09T19:51:57.487Z,2.15
2023-05-09T19:57:32.449Z,1.92
2023-05-09T19:59:59.472Z,1.40
2023-05-09T20:02:29.382Z,2.00
2023-05-09T20:05:02.152Z,2.50
2023-05-09T20:07:31.211Z,0.82
2023-05-09T20:09:58.025Z,2.15
2023-05-09T20:12:43.490Z,2.53
2023-05-09T20:15:15.481Z,6.93
2023-05-09T20:17:47.211Z,4.03
2023-05-09T20:20:14.242Z,4.07
2023-05-09T20:22:41.244Z,5.47
2023-05-09T20:25:08.312Z,6.60
2023-05-09T20:27:37.659Z,2.83
2023-05-09T20:30:05.184Z,4.88
2023-05-09T20:32:45.140Z,3.65
2023-05-09T20:35:12.297Z,5.18
2023-05-09T20:37:42.154Z,7.80
2023-05-09T20:40:14.685Z,1.98
2023-05-09T20:42:56.476Z,1.27
2023-05-09T20:45:34.235Z,2.35
2023-05-09T20:48:10.723Z,2.47
2023-05-09T20:50:37.700Z,1.58
2023-05-09T20:53:08.240Z,2.20
2023-05-09T20:55:38.063Z,4.25
2023-05-09T20:58:07.616Z,8.38
2023-05-09T21:00:35.909Z,5.85
2023-05-09T21:03:03.061Z,0.82
2023-05-09T21:05:30.052Z,0.68
2023-05-09T21:07:57.223Z,1.90
2023-05-09T21:10:24.292Z,2.20
2023-05-09T21:12:51.227Z,0.68
2023-05-09T21:15:18.248Z,2.17
2023-05-09T21:17:45.405Z,2.42
2023-05-09T21:20:14.980Z,1.85
2023-05-09T21:22:45.481Z,1.67
2023-05-09T21:25:12.716Z,3.13
2023-05-09T21:27:39.752Z,0.70
2023-05-09T21:30:07.830Z,0.75
2023-05-09T21:32:35.258Z,5.22
2023-05-09T21:35:04.203Z,0.32
2023-05-09T21:37:38.489Z,1.83
2023-05-09T21:40:06.599Z,0.90
2023-05-09T21:42:34.353Z,1.33
2023-05-09T21:45:01.632Z,2.28
2023-05-09T21:47:28.938Z,1.65
2023-05-09T21:49:57.330Z,0.57
2023-05-09T21:52:24.346Z,1.17
2023-05-09T21:54:51.411Z,4.35
2023-05-09T21:57:18.390Z,0.65
2023-05-09T21:59:45.327Z,0.45
2023-05-09T22:02:12.340Z,1.38
2023-05-09T22:04:40.252Z,2.95
2023-05-09T22:07:07.239Z,1.67
2023-05-09T22:09:34.088Z,1.10
2023-05-09T22:12:00.849Z,1.45
2023-05-09T22:14:27.762Z,3.83
2023-05-09T22:16:54.469Z,2.03
2023-05-09T22:19:21.363Z,2.70
2023-05-09T22:21:48.990Z,2.08
2023-05-09T22:24:16.190Z,3.10
2023-05-09T22:26:43.135Z,0.77
2023-05-09T22:29:10.154Z,1.38
2023-05-09T22:31:37.006Z,0.75
2023-05-09T22:34:03.950Z,0.73
2023-05-09T22:36:31.959Z,0.30
2023-05-09T22:38:58.633Z,0.10
2023-05-09T22:41:25.326Z,1.08
2023-05-09T22:43:52.026Z,1.15
2023-05-09T22:46:19.134Z,0.05
2023-05-09T22:48:48.273Z,0.10
2023-05-09T22:51:15.192Z,0.13
2023-05-09T22:53:41.951Z,0.70
2023-05-09T22:56:09.647Z,1.30
2023-05-09T22:58:36.672Z,0.17
2023-05-09T23:01:03.552Z,0.10
2023-05-09T23:03:30.659Z,0.77
2023-05-09T23:05:57.417Z,0.00
2023-05-09T23:08:24.217Z,0.00
2023-05-09T23:10:50.967Z,1.50
2023-05-09T23:13:17.843Z,0.10
2023-05-09T23:15:44.672Z,0.22
2023-05-09T23:18:12.233Z,0.68
2023-05-09T23:20:39.110Z,0.05
2023-05-09T23:23:06.102Z,0.60
2023-05-09T23:25:32.924Z,0.20
2023-05-09T23:27:59.754Z,0.00
2023-05-09T23:30:26.719Z,0.40
2023-05-09T23:32:53.830Z,0.00
2023-05-09T23:35:21.262Z,2.90
2023-05-09T23:37:48.534Z,0.00
2023-05-09T23:40:15.592Z,1.88
2023-05-09T23:42:42.816Z,0.80
2023-05-09T23:45:10.391Z,1.98
2023-05-09T23:47:37.239Z,0.13
2023-05-09T23:50:04.329Z,1.00
2023-05-09T23:52:31.657Z,0.10
2023-05-09T23:54:58.541Z,0.10
2023-05-09T23:57:27.706Z,1.65
2023-05-09T23:59:54.424Z,0.20
